Time;durP1;ratioP1;P1;durP2;ratioP2;P2;SDS_P1;SDS_P2;PMS_P1;PMS_P2;Temp;Humidity;BMP_temperature;BMP_pressure;BME280_temperature;BME280_humidity;BME280_pressure;Samples;Min_cycle;Max_cycle;Signal;HPM_P1;HPM_P2
2023/08/05 00:01:51;;;;;;;2.23;1.93;;;;;;;17.18;nan;99478.53;4994990;28;20565;-78
2023/08/05 00:04:17;;;;;;;3.73;2.57;;;;;;;17.20;nan;99478.38;4978279;28;20212;-78
2023/08/05 00:06:42;;;;;;;3.43;2.60;;;;;;;17.21;nan;99486.22;4996479;28;20524;-78
2023/08/05 00:09:07;;;;;;;2.90;2.30;;;;;;;17.22;nan;99490.53;4980215;28;20216;-78
2023/08/05 00:11:33;;;;;;;3.23;2.10;;;;;;;17.23;nan;99500.19;4998193;28;20204;-79
2023/08/05 00:13:58;;;;;;;3.53;2.90;;;;;;;17.22;nan;99502.97;4997892;28;20212;-78
2023/08/05 00:16:24;;;;;;;3.20;2.20;;;;;;;17.18;nan;99494.47;4992777;28;20211;-78
2023/08/05 00:18:50;;;;;;;3.33;2.23;;;;;;;17.17;nan;99491.94;4995798;28;20226;-78
2023/08/05 00:21:15;;;;;;;6.60;2.20;;;;;;;17.16;nan;99495.59;4997193;28;20455;-78
2023/08/05 00:23:40;;;;;;;5.07;2.57;;;;;;;17.14;nan;99497.53;4998550;28;20707;-79
2023/08/05 00:26:06;;;;;;;5.50;2.63;;;;;;;17.12;nan;99504.81;4991051;28;20268;-79
2023/08/05 00:28:31;;;;;;;4.20;2.90;;;;;;;17.07;nan;99499.09;4991366;28;20349;-79
2023/08/05 00:30:57;;;;;;;3.30;2.67;;;;;;;17.03;nan;99498.53;4993118;28;20205;-78
2023/08/05 00:33:22;;;;;;;3.40;2.37;;;;;;;17.01;nan;99509.31;4994354;28;20203;-78
2023/08/05 00:35:47;;;;;;;4.13;2.23;;;;;;;16.97;nan;99513.22;4996462;28;20434;-78
2023/08/05 00:38:13;;;;;;;4.17;2.10;;;;;;;16.94;nan;99510.00;4993642;28;20208;-78
2023/08/05 00:40:39;;;;;;;2.50;1.60;;;;;;;16.91;nan;99510.28;5002824;28;20264;-78
2023/08/05 00:43:05;;;;;;;2.07;1.87;;;;;;;16.85;nan;99501.09;5001319;28;20729;-79
2023/08/05 00:45:31;;;;;;;2.53;1.80;;;;;;;16.77;nan;99488.50;5001134;28;20441;-78
2023/08/05 00:47:57;;;;;;;2.17;1.33;;;;;;;16.67;nan;99492.94;4997656;28;20478;-78
2023/08/05 00:50:24;;;;;;;5.43;1.60;;;;;;;16.58;nan;99496.44;4989172;28;20329;-78
2023/08/05 00:52:50;;;;;;;3.85;1.80;;;;;;;16.50;nan;99493.63;4989435;28;20218;-78
2023/08/05 00:55:15;;;;;;;1.90;1.60;;;;;;;16.45;nan;99491.41;4998474;28;20206;-78
2023/08/05 00:57:41;;;;;;;5.00;1.67;;;;;;;16.41;nan;99499.75;4997352;28;20253;-78
2023/08/05 01:00:07;;;;;;;1.50;1.40;;;;;;;16.36;nan;99495.72;4996139;28;20623;-78
2023/08/05 01:02:32;;;;;;;1.30;1.20;;;;;;;16.36;nan;99486.91;4998330;28;20908;-78
2023/08/05 01:04:58;;;;;;;1.93;1.57;;;;;;;16.39;nan;99499.91;4999572;28;20287;-78
2023/08/05 01:07:25;;;;;;;2.65;1.88;;;;;;;16.41;nan;99495.28;4996571;28;20203;-78
2023/08/05 01:09:51;;;;;;;2.77;2.27;;;;;;;16.41;nan;99497.09;4984619;28;20322;-79
2023/08/05 01:12:17;;;;;;;5.03;2.47;;;;;;;16.43;nan;99492.50;4992529;28;20558;-78
2023/08/05 01:14:42;;;;;;;3.53;2.20;;;;;;;16.45;nan;99491.41;4999583;28;20214;-78
2023/08/05 01:17:08;;;;;;;2.33;1.80;;;;;;;16.50;nan;99485.66;4995101;28;20702;-78
2023/08/05 01:19:34;;;;;;;2.00;1.80;;;;;;;16.53;nan;99488.91;4992289;28;20231;-78
2023/08/05 01:22:23;;;;;;;3.15;1.90;;;;;;;16.53;nan;99486.25;4997526;28;20256;-79
2023/08/05 01:24:58;;;;;;;3.30;2.03;;;;;;;16.51;nan;99480.22;4996669;28;20207;-79
2023/08/05 01:27:24;;;;;;;3.63;2.30;;;;;;;16.49;nan;99497.25;4998198;28;20210;-78
2023/08/05 01:29:51;;;;;;;6.77;2.30;;;;;;;16.49;nan;99498.09;4996816;28;20235;-78
2023/08/05 01:32:18;;;;;;;3.10;2.37;;;;;;;16.52;nan;99492.50;4996275;28;20203;-79
2023/08/05 01:34:45;;;;;;;2.20;2.00;;;;;;;16.56;nan;99488.63;4997830;28;20464;-77
2023/08/05 01:37:10;;;;;;;2.92;2.10;;;;;;;16.57;nan;99490.28;5000394;28;20202;-77
2023/08/05 01:39:36;;;;;;;3.87;2.00;;;;;;;16.55;nan;99492.25;4997650;28;20212;-77
2023/08/05 01:42:02;;;;;;;2.73;1.70;;;;;;;16.57;nan;99492.09;4978531;28;20457;-77
2023/08/05 01:44:27;;;;;;;3.40;2.63;;;;;;;16.60;nan;99492.66;4993785;28;20222;-77
2023/08/05 01:46:53;;;;;;;3.60;2.37;;;;;;;16.62;nan;99491.69;4999767;28;20773;-77
2023/08/05 01:49:18;;;;;;;4.27;2.73;;;;;;;16.55;nan;99486.94;4981177;28;20212;-78
2023/08/05 01:51:44;;;;;;;3.43;2.40;;;;;;;16.50;nan;99483.88;4998517;28;20953;-78
2023/08/05 01:54:09;;;;;;;3.70;2.90;;;;;;;16.51;nan;99482.06;4996162;28;20210;-77
2023/08/05 01:56:35;;;;;;;3.50;2.17;;;;;;;16.50;nan;99475.91;4998703;28;20203;-78
2023/08/05 01:59:00;;;;;;;5.10;2.70;;;;;;;16.49;nan;99471.56;4980161;28;20232;-76
2023/08/05 02:01:41;;;;;;;4.80;2.80;;;;;;;16.48;nan;99477.03;4979909;28;20195;-76
2023/08/05 02:04:07;;;;;;;3.72;3.10;;;;;;;16.50;nan;99480.34;4977441;28;20474;-76
2023/08/05 02:06:33;;;;;;;3.83;2.70;;;;;;;16.49;nan;99479.53;4978787;28;20386;-77
2023/08/05 02:08:59;;;;;;;3.90;2.47;;;;;;;16.48;nan;99482.34;4999401;28;20536;-77
2023/08/05 02:11:24;;;;;;;6.00;3.00;;;;;;;16.45;nan;99483.44;4992272;28;20195;-76
2023/08/05 02:13:50;;;;;;;5.30;3.03;;;;;;;16.42;nan;99482.88;4995080;28;20211;-77
2023/08/05 02:16:15;;;;;;;4.50;2.60;;;;;;;16.40;nan;99490.16;4988145;28;20212;-76
2023/08/05 02:18:40;;;;;;;3.33;2.63;;;;;;;16.40;nan;99485.66;4988323;28;20728;-76
2023/08/05 02:21:06;;;;;;;3.70;2.60;;;;;;;16.41;nan;99482.03;4987327;28;20201;-77
2023/08/05 02:23:31;;;;;;;6.93;3.13;;;;;;;16.40;nan;99477.72;4987938;28;21360;-77
2023/08/05 02:25:56;;;;;;;3.33;2.50;;;;;;;16.45;nan;99474.66;4988985;28;20231;-76
2023/08/05 02:28:22;;;;;;;5.93;3.50;;;;;;;16.46;nan;99474.50;4987174;28;20216;-77
2023/08/05 02:30:47;;;;;;;4.50;3.30;;;;;;;16.47;nan;99465.59;4993989;28;20199;-77
2023/08/05 02:33:13;;;;;;;3.53;2.00;;;;;;;16.43;nan;99469.47;4993494;28;20266;-78
2023/08/05 02:35:38;;;;;;;6.07;3.30;;;;;;;16.38;nan;99467.25;4989412;28;20527;-76
2023/08/05 02:38:03;;;;;;;3.57;3.27;;;;;;;16.38;nan;99466.41;4994547;28;20248;-78
2023/08/05 02:40:33;;;;;;;2.80;2.30;;;;;;;16.34;nan;99468.50;4973451;28;21060;-76
2023/08/05 02:42:58;;;;;;;5.27;2.80;;;;;;;16.31;nan;99466.13;4971917;28;20220;-76
2023/08/05 02:45:23;;;;;;;3.10;2.43;;;;;;;16.32;nan;99466.97;4995337;28;20469;-76
2023/08/05 02:47:49;;;;;;;3.10;2.73;;;;;;;16.34;nan;99470.31;4995070;28;20293;-77
2023/08/05 02:50:14;;;;;;;3.27;2.50;;;;;;;16.34;nan;99465.03;4997670;28;20328;-77
2023/08/05 02:52:40;;;;;;;3.57;2.87;;;;;;;16.34;nan;99470.31;4980061;28;20202;-76
2023/08/05 02:55:05;;;;;;;6.33;3.13;;;;;;;16.35;nan;99466.69;4981213;28;20211;-76
2023/08/05 02:57:31;;;;;;;4.63;3.40;;;;;;;16.36;nan;99463.91;4993330;28;21036;-77
2023/08/05 02:59:56;;;;;;;5.30;3.57;;;;;;;16.38;nan;99455.81;4992571;28;20307;-78
2023/08/05 03:02:22;;;;;;;5.50;3.20;;;;;;;16.42;nan;99451.91;5002533;28;20235;-76
2023/08/05 03:04:47;;;;;;;10.83;3.17;;;;;;;16.44;nan;99449.94;4991684;28;20236;-76
2023/08/05 03:07:12;;;;;;;3.00;2.27;;;;;;;16.44;nan;99446.47;5001016;28;20598;-76
2023/08/05 03:09:38;;;;;;;4.03;2.93;;;;;;;16.40;nan;99445.91;5005931;28;20222;-76
2023/08/05 03:12:07;;;;;;;2.63;2.20;;;;;;;16.35;nan;99451.63;5007324;28;20210;-76
2023/08/05 03:14:34;;;;;;;4.15;2.78;;;;;;;16.33;nan;99445.59;4999380;28;20210;-77
2023/08/05 03:17:01;;;;;;;5.30;2.55;;;;;;;16.31;nan;99442.28;4982599;28;20206;-76
2023/08/05 03:19:26;;;;;;;3.80;2.90;;;;;;;16.26;nan;99444.50;5003531;28;20312;-77
2023/08/05 03:21:52;;;;;;;2.97;2.50;;;;;;;16.23;nan;99451.88;4999218;28;20569;-76
2023/08/05 03:24:18;;;;;;;6.73;2.63;;;;;;;16.23;nan;99450.09;4979451;28;20206;-77
2023/08/05 03:26:49;;;;;;;3.92;2.10;;;;;;;16.21;nan;99438.78;5001117;28;20472;-76
2023/08/05 03:29:14;;;;;;;5.90;3.60;;;;;;;16.17;nan;99433.88;5000812;28;20229;-77
2023/08/05 03:31:40;;;;;;;3.63;2.65;;;;;;;16.16;nan;99435.69;4994906;28;20212;-76
2023/08/05 03:34:07;;;;;;;3.33;2.78;;;;;;;16.15;nan;99439.34;4983566;28;20661;-78
2023/08/05 03:36:33;;;;;;;3.55;2.85;;;;;;;16.18;nan;99427.63;4978593;28;20427;-77
2023/08/05 03:38:59;;;;;;;3.15;2.85;;;;;;;16.15;nan;99428.75;4998411;28;20297;-77
2023/08/05 03:41:25;;;;;;;4.30;3.33;;;;;;;16.09;nan;99427.47;4982630;28;20193;-76
2023/08/05 03:43:50;;;;;;;4.50;2.70;;;;;;;16.08;nan;99438.19;4999255;28;21170;-77
2023/08/05 03:46:16;;;;;;;4.33;2.57;;;;;;;16.04;nan;99437.66;4982825;28;20207;-76
2023/08/05 03:48:41;;;;;;;5.00;2.50;;;;;;;16.02;nan;99444.06;5001565;28;20539;-76
2023/08/05 03:51:07;;;;;;;3.80;2.20;;;;;;;15.92;nan;99455.44;4996503;28;20714;-77
2023/08/05 03:53:33;;;;;;;2.80;2.60;;;;;;;15.88;nan;99463.81;4981647;28;20220;-76
2023/08/05 03:55:59;;;;;;;2.55;2.00;;;;;;;15.82;nan;99461.69;4985596;28;20191;-75
2023/08/05 03:58:25;;;;;;;3.20;2.63;;;;;;;15.76;nan;99473.66;4998979;28;20266;-76
2023/08/05 04:00:51;;;;;;;4.53;3.10;;;;;;;15.68;nan;99476.09;4975110;28;20202;-77
2023/08/05 04:03:18;;;;;;;4.63;2.15;;;;;;;15.60;nan;99481.22;4993447;28;20718;-75
2023/08/05 04:05:43;;;;;;;3.30;2.50;;;;;;;15.53;nan;99485.38;4991721;28;20529;-77
2023/08/05 04:08:09;;;;;;;9.73;2.70;;;;;;;15.52;nan;99486.34;4995515;28;20209;-76
2023/08/05 04:10:35;;;;;;;3.30;2.33;;;;;;;15.55;nan;99483.44;4999275;28;20718;-75
2023/08/05 04:13:03;;;;;;;5.15;2.60;;;;;;;15.56;nan;99480.66;5004600;28;20300;-79
2023/08/05 04:15:30;;;;;;;2.83;2.10;;;;;;;15.56;nan;99480.66;4991960;28;20204;-77
2023/08/05 04:18:00;;;;;;;3.47;2.00;;;;;;;15.55;nan;99486.91;5003561;28;20210;-78
2023/08/05 04:20:27;;;;;;;3.92;2.25;;;;;;;15.56;nan;99488.59;4987699;28;20327;-76
2023/08/05 04:22:53;;;;;;;2.33;2.03;;;;;;;15.59;nan;99495.44;5002338;28;20202;-78
2023/08/05 04:25:19;;;;;;;6.22;2.50;;;;;;;15.59;nan;99498.09;4983696;28;20242;-79
2023/08/05 04:27:45;;;;;;;3.20;2.20;;;;;;;15.57;nan;99503.50;4997248;28;20682;-77
2023/08/05 04:30:10;;;;;;;3.40;2.13;;;;;;;15.58;nan;99501.69;4998846;28;20300;-76
2023/08/05 04:32:36;;;;;;;3.50;2.43;;;;;;;15.59;nan;99504.22;4996834;28;21564;-77
2023/08/05 04:35:01;;;;;;;4.27;3.03;;;;;;;15.59;nan;99496.28;4993396;28;20209;-77
2023/08/05 04:37:27;;;;;;;2.73;1.80;;;;;;;15.55;nan;99494.03;4998991;28;20224;-77
2023/08/05 04:39:53;;;;;;;4.82;1.88;;;;;;;15.52;nan;99497.78;4997753;28;20210;-77
2023/08/05 04:42:19;;;;;;;2.47;1.67;;;;;;;15.47;nan;99507.91;4991673;28;20197;-76
2023/08/05 04:44:45;;;;;;;2.67;2.00;;;;;;;15.41;nan;99508.44;4991938;28;20319;-77
2023/08/05 04:47:11;;;;;;;2.65;1.90;;;;;;;15.35;nan;99511.63;4991361;28;20216;-76
2023/08/05 04:49:40;;;;;;;2.45;1.70;;;;;;;15.30;nan;99516.47;4997385;28;20252;-75
2023/08/05 04:52:06;;;;;;;2.70;2.17;;;;;;;15.24;nan;99516.00;5000713;28;20197;-77
2023/08/05 04:54:37;;;;;;;2.45;1.67;;;;;;;15.22;nan;99522.41;4998074;28;20197;-77
2023/08/05 04:57:03;;;;;;;2.15;1.63;;;;;;;15.19;nan;99520.00;5001638;28;20200;-76
2023/08/05 04:59:29;;;;;;;2.00;1.67;;;;;;;15.15;nan;99519.44;4997978;28;20262;-77
2023/08/05 05:01:55;;;;;;;3.03;2.00;;;;;;;15.11;nan;99510.06;4993355;28;20215;-75
2023/08/05 05:04:20;;;;;;;2.50;1.97;;;;;;;15.09;nan;99512.00;4994070;28;20505;-76
2023/08/05 05:06:45;;;;;;;3.85;2.58;;;;;;;15.10;nan;99508.41;4993485;28;21059;-76
2023/08/05 05:09:11;;;;;;;2.57;1.83;;;;;;;15.13;nan;99515.25;4992416;28;20279;-77
2023/08/05 05:11:36;;;;;;;2.70;2.07;;;;;;;15.24;nan;99517.81;4994942;28;20590;-77
2023/08/05 05:14:03;;;;;;;3.77;2.40;;;;;;;15.38;nan;99514.84;4997812;28;20206;-76
2023/08/05 05:16:29;;;;;;;3.05;2.30;;;;;;;15.63;nan;99510.91;4988807;28;20201;-76
2023/08/05 05:18:54;;;;;;;3.03;2.40;;;;;;;15.84;nan;99512.72;4991100;28;20212;-76
2023/08/05 05:21:20;;;;;;;3.23;2.43;;;;;;;15.98;nan;99512.34;4993517;28;20286;-76
2023/08/05 05:23:45;;;;;;;2.60;2.30;;;;;;;16.14;nan;99507.38;4988476;28;20200;-76
2023/08/05 05:26:10;;;;;;;2.20;1.87;;;;;;;16.25;nan;99513.53;4994763;28;20225;-76
2023/08/05 05:28:36;;;;;;;5.03;2.83;;;;;;;16.31;nan;99512.97;4993546;28;20704;-77
2023/08/05 05:31:02;;;;;;;3.67;2.53;;;;;;;16.34;nan;99512.75;4984720;28;20223;-77
2023/08/05 05:33:28;;;;;;;6.57;2.58;;;;;;;16.32;nan;99509.38;4992147;28;20904;-75
2023/08/05 05:35:53;;;;;;;3.07;2.77;;;;;;;16.36;nan;99505.47;4988256;28;20187;-75
2023/08/05 05:38:19;;;;;;;3.50;2.67;;;;;;;16.54;nan;99498.50;4989687;28;20257;-76
2023/08/05 05:40:44;;;;;;;3.70;3.40;;;;;;;17.01;nan;99497.84;4991614;28;20346;-77
2023/08/05 05:43:10;;;;;;;3.10;2.53;;;;;;;17.59;nan;99491.56;4994533;28;20229;-76
2023/08/05 05:45:35;;;;;;;5.23;3.70;;;;;;;17.98;nan;99497.56;4992988;28;20218;-76
2023/08/05 05:48:01;;;;;;;3.50;3.23;;;;;;;18.34;nan;99497.66;4995592;28;20199;-77
2023/08/05 05:50:26;;;;;;;4.17;3.30;;;;;;;18.76;nan;99489.94;4996846;28;20247;-77
2023/08/05 05:52:53;;;;;;;4.20;2.70;;;;;;;19.28;nan;99491.00;5000042;28;20294;-76
2023/08/05 05:55:19;;;;;;;7.50;2.93;;;;;;;19.75;nan;99486.13;4995586;28;20212;-76
2023/08/05 05:57:45;;;;;;;2.77;2.07;;;;;;;20.19;nan;99483.28;4997349;28;20451;-76
2023/08/05 06:00:11;;;;;;;4.23;2.50;;;;;;;20.52;nan;99486.03;4996755;28;20251;-76
2023/08/05 06:02:39;;;;;;;2.80;2.50;;;;;;;20.77;nan;99481.59;4996543;28;20208;-76
2023/08/05 06:05:05;;;;;;;3.60;3.13;;;;;;;21.04;nan;99476.94;4995165;28;20344;-77
2023/08/05 06:07:31;;;;;;;4.73;2.77;;;;;;;21.33;nan;99482.56;4996299;28;20207;-77
2023/08/05 06:09:56;;;;;;;2.50;1.90;;;;;;;21.69;nan;99478.66;4990017;28;20441;-76
2023/08/05 06:12:22;;;;;;;3.90;2.37;;;;;;;22.04;nan;99485.34;4993667;28;20199;-76
2023/08/05 06:14:48;;;;;;;3.60;2.73;;;;;;;22.47;nan;99477.78;4991396;28;20200;-76
2023/08/05 06:17:14;;;;;;;7.67;2.43;;;;;;;22.82;nan;99486.22;4987301;28;20433;-77
2023/08/05 06:19:39;;;;;;;3.40;3.10;;;;;;;23.03;nan;99481.03;4992876;28;20465;-77
2023/08/05 06:22:05;;;;;;;3.93;3.03;;;;;;;23.36;nan;99475.41;4996953;28;20250;-78
2023/08/05 06:24:30;;;;;;;3.43;2.60;;;;;;;23.69;nan;99469.66;4993561;28;20244;-77
2023/08/05 06:26:56;;;;;;;3.00;2.50;;;;;;;23.99;nan;99470.50;4997106;28;20822;-76
2023/08/05 06:29:21;;;;;;;5.87;2.70;;;;;;;24.20;nan;99469.72;4991303;28;21091;-76
2023/08/05 06:31:47;;;;;;;4.00;3.10;;;;;;;24.45;nan;99465.66;4998850;28;20245;-77
2023/08/05 06:34:12;;;;;;;4.33;3.27;;;;;;;24.75;nan;99465.53;4998761;28;20192;-76
2023/08/05 06:36:37;;;;;;;4.30;3.50;;;;;;;24.98;nan;99465.34;4992940;28;20203;-76
2023/08/05 06:39:03;;;;;;;4.13;2.87;;;;;;;25.02;nan;99461.22;4995898;28;20212;-77
2023/08/05 06:41:29;;;;;;;3.67;3.27;;;;;;;25.10;nan;99462.94;4991396;28;20266;-77
2023/08/05 06:43:54;;;;;;;3.37;2.70;;;;;;;25.10;nan;99473.69;4999306;28;20220;-77
2023/08/05 06:46:20;;;;;;;4.50;2.10;;;;;;;25.25;nan;99465.53;4994545;28;20848;-77
2023/08/05 06:48:45;;;;;;;4.17;2.40;;;;;;;25.34;nan;99459.84;4994332;28;20222;-77
2023/08/05 06:51:11;;;;;;;3.30;3.00;;;;;;;24.99;nan;99441.97;4996791;28;20192;-76
2023/08/05 06:53:39;;;;;;;3.43;2.53;;;;;;;24.94;nan;99448.75;4996441;28;20212;-76
2023/08/05 06:56:05;;;;;;;3.33;3.10;;;;;;;24.86;nan;99443.53;4991300;28;20420;-78
2023/08/05 06:58:31;;;;;;;3.87;2.57;;;;;;;24.92;nan;99444.59;4995861;28;20573;-76
2023/08/05 07:00:56;;;;;;;4.20;3.50;;;;;;;24.98;nan;99440.28;4990117;28;20459;-76
2023/08/05 07:03:23;;;;;;;4.70;3.50;;;;;;;24.76;nan;99443.00;4991849;28;20478;-77
2023/08/05 07:05:49;;;;;;;3.77;2.57;;;;;;;24.79;nan;99458.78;4997679;28;21121;-76
2023/08/05 07:08:14;;;;;;;3.13;2.50;;;;;;;24.84;nan;99455.47;4994690;28;20480;-77
2023/08/05 07:10:40;;;;;;;3.00;2.23;;;;;;;24.86;nan;99456.13;4994134;28;20679;-77
2023/08/05 07:13:06;;;;;;;3.43;3.10;;;;;;;24.76;nan;99463.69;4995246;28;20277;-76
2023/08/05 07:15:39;;;;;;;3.90;2.90;;;;;;;24.40;nan;99462.69;4992428;28;20192;-76
2023/08/05 07:18:05;;;;;;;3.80;2.73;;;;;;;24.19;nan;99455.44;4998137;28;20539;-77
2023/08/05 07:20:30;;;;;;;5.90;3.03;;;;;;;24.05;nan;99462.50;4992766;28;20542;-76
2023/08/05 07:22:56;;;;;;;4.57;2.90;;;;;;;23.88;nan;99462.94;4995279;28;20446;-77
2023/08/05 07:25:21;;;;;;;5.27;4.30;;;;;;;23.70;nan;99466.78;4994939;28;20207;-77
2023/08/05 07:27:47;;;;;;;3.60;3.17;;;;;;;23.67;nan;99467.16;4997917;28;20195;-77
2023/08/05 07:30:12;;;;;;;4.37;3.63;;;;;;;23.83;nan;99464.31;4990172;28;20695;-76
2023/08/05 07:32:37;;;;;;;4.10;3.10;;;;;;;24.33;nan;99461.81;4987868;28;20218;-76
2023/08/05 07:37:57;;;;;;;3.87;2.87;;;;;;;24.79;nan;99461.47;4961383;28;20272;-80
2023/08/05 07:40:26;;;;;;;3.83;3.30;;;;;;;24.39;nan;99460.22;4968741;28;20941;-79
2023/08/05 07:42:53;;;;;;;5.63;4.00;;;;;;;24.30;nan;99454.09;4990582;28;20210;-82
2023/08/05 07:45:21;;;;;;;4.00;3.60;;;;;;;24.13;nan;99450.84;4995856;28;20429;-83
2023/08/05 07:47:47;;;;;;;4.47;4.07;;;;;;;23.94;nan;99454.94;5014875;28;20431;-82
2023/08/05 07:50:21;;;;;;;3.93;3.07;;;;;;;24.14;nan;99440.94;5009622;28;20444;-83
2023/08/05 07:52:46;;;;;;;3.80;3.23;;;;;;;24.60;nan;99435.22;5008524;28;20457;-83
2023/08/05 07:55:12;;;;;;;3.10;2.80;;;;;;;25.10;nan;99430.69;5013973;28;20517;-82
2023/08/05 07:57:40;;;;;;;6.90;3.97;;;;;;;25.56;nan;99435.53;5012381;28;20208;-83
2023/08/05 08:00:08;;;;;;;3.73;3.23;;;;;;;25.82;nan;99432.97;5013448;28;20451;-83
2023/08/05 08:02:38;;;;;;;6.90;3.50;;;;;;;25.93;nan;99425.41;5012604;28;20408;-83
2023/08/05 08:05:05;;;;;;;3.17;2.87;;;;;;;26.04;nan;99411.34;5014339;28;20420;-82
2023/08/05 08:07:31;;;;;;;3.77;3.23;;;;;;;26.05;nan;99408.44;5013229;28;20871;-83
2023/08/05 08:09:59;;;;;;;3.53;3.23;;;;;;;25.89;nan;99408.00;5012109;28;20997;-83
2023/08/05 08:12:25;;;;;;;4.73;3.30;;;;;;;25.21;nan;99400.59;5014869;28;20405;-83
2023/08/05 08:14:50;;;;;;;3.00;2.67;;;;;;;24.87;nan;99391.47;5012098;28;20440;-83
2023/08/05 08:17:16;;;;;;;4.50;3.20;;;;;;;25.09;nan;99391.41;5013095;28;20824;-83
2023/08/05 08:19:42;;;;;;;3.83;2.93;;;;;;;25.30;nan;99382.44;5018627;28;20225;-83
2023/08/05 08:22:08;;;;;;;2.63;2.20;;;;;;;25.12;nan;99391.00;5014303;28;20208;-81
2023/08/05 08:24:33;;;;;;;4.97;3.10;;;;;;;24.81;nan;99388.72;5003820;28;22816;-81
2023/08/05 08:27:01;;;;;;;3.60;3.30;;;;;;;24.28;nan;99392.59;5004284;28;20215;-80
2023/08/05 08:29:27;;;;;;;3.93;2.80;;;;;;;24.05;nan;99392.75;5000392;28;20210;-81
2023/08/05 08:31:52;;;;;;;4.73;4.10;;;;;;;24.24;nan;99390.47;4989341;28;20458;-81
2023/08/05 08:34:17;;;;;;;6.77;4.17;;;;;;;24.35;nan;99389.13;5004282;28;20195;-81
2023/08/05 08:36:43;;;;;;;3.60;3.33;;;;;;;24.15;nan;99383.56;5001353;28;20742;-81
2023/08/05 08:39:08;;;;;;;4.00;3.60;;;;;;;23.93;nan;99380.03;5002249;28;20199;-81
2023/08/05 08:41:41;;;;;;;5.67;3.03;;;;;;;23.98;nan;99378.44;5008699;28;20199;-81
2023/08/05 08:44:09;;;;;;;3.53;3.23;;;;;;;24.23;nan;99376.22;5011414;28;20192;-81
2023/08/05 08:46:37;;;;;;;4.37;3.63;;;;;;;24.33;nan;99378.59;5010260;28;20524;-81
2023/08/05 08:49:03;;;;;;;3.90;3.50;;;;;;;24.31;nan;99387.84;4999825;28;20458;-78
2023/08/05 08:51:29;;;;;;;4.13;3.33;;;;;;;24.37;nan;99389.75;4988064;28;20915;-81
2023/08/05 08:53:55;;;;;;;4.27;2.53;;;;;;;24.55;nan;99395.53;4995919;28;20473;-81
2023/08/05 08:56:21;;;;;;;3.80;3.07;;;;;;;24.78;nan;99389.94;4993952;28;20428;-81
2023/08/05 08:58:46;;;;;;;3.77;3.40;;;;;;;25.05;nan;99393.63;4995493;28;20465;-81
2023/08/05 09:01:16;;;;;;;4.40;3.40;;;;;;;25.13;nan;99379.22;4999608;28;20277;-81
2023/08/05 09:03:43;;;;;;;5.30;4.03;;;;;;;24.95;nan;99374.34;4992482;28;20446;-81
2023/08/05 09:06:12;;;;;;;3.95;3.55;;;;;;;24.62;nan;99379.47;4989528;28;20445;-81
2023/08/05 09:08:37;;;;;;;3.73;3.00;;;;;;;24.21;nan;99382.78;4996680;28;20187;-81
2023/08/05 09:11:04;;;;;;;3.63;2.70;;;;;;;23.91;nan;99382.91;4997160;28;20501;-81
2023/08/05 09:13:29;;;;;;;3.93;3.53;;;;;;;23.78;nan;99377.38;4997291;28;20202;-81
2023/08/05 09:15:55;;;;;;;3.87;3.37;;;;;;;23.83;nan;99372.28;5002333;28;20469;-81
2023/08/05 09:18:20;;;;;;;4.73;3.87;;;;;;;24.07;nan;99371.09;5005453;28;20634;-82
2023/08/05 09:20:50;;;;;;;3.90;3.50;;;;;;;24.37;nan;99368.28;5007762;28;20191;-81
2023/08/05 09:23:16;;;;;;;4.63;4.23;;;;;;;24.53;nan;99370.75;5002998;28;20203;-81
2023/08/05 09:25:46;;;;;;;4.33;3.50;;;;;;;24.69;nan;99364.25;4999346;28;20460;-81
2023/08/05 09:28:12;;;;;;;4.47;4.07;;;;;;;24.66;nan;99365.47;4997904;28;20460;-81
2023/08/05 09:30:37;;;;;;;6.90;3.47;;;;;;;24.33;nan;99354.44;4993180;28;20466;-80
2023/08/05 09:33:04;;;;;;;4.37;4.03;;;;;;;23.83;nan;99358.88;4990390;28;20212;-81
2023/08/05 09:35:29;;;;;;;3.47;3.17;;;;;;;23.53;nan;99366.13;4997932;28;20642;-81
2023/08/05 09:37:55;;;;;;;4.77;3.60;;;;;;;23.47;nan;99361.53;4998421;28;20210;-81
2023/08/05 09:40:24;;;;;;;4.10;3.70;;;;;;;23.43;nan;99355.69;4996342;28;20203;-81
2023/08/05 09:42:52;;;;;;;3.80;3.50;;;;;;;23.63;nan;99345.22;4998507;28;20718;-81
2023/08/05 09:45:19;;;;;;;3.70;3.40;;;;;;;23.78;nan;99334.47;5001461;28;20459;-81
2023/08/05 09:47:52;;;;;;;3.20;2.90;;;;;;;23.74;nan;99349.28;4999730;28;21033;-81
2023/08/05 09:50:18;;;;;;;4.33;3.00;;;;;;;23.87;nan;99345.91;5002449;28;21034;-81
2023/08/05 09:52:45;;;;;;;3.53;3.00;;;;;;;24.20;nan;99338.22;5001268;28;20434;-82
2023/08/05 09:55:17;;;;;;;4.03;2.90;;;;;;;24.37;nan;99328.84;5005765;28;20206;-82
2023/08/05 09:57:43;;;;;;;5.60;3.73;;;;;;;24.66;nan;99327.88;5003593;28;20450;-82
2023/08/05 10:00:14;;;;;;;3.90;3.60;;;;;;;24.80;nan;99326.09;5009960;28;20481;-82
2023/08/05 10:02:44;;;;;;;2.60;2.40;;;;;;;24.74;nan;99329.59;5001012;28;20451;-82
2023/08/05 10:05:12;;;;;;;3.33;3.03;;;;;;;24.70;nan;99323.75;4980697;28;21151;-82
2023/08/05 10:07:42;;;;;;;3.70;3.40;;;;;;;24.80;nan;99307.31;4994082;28;20999;-82
2023/08/05 10:10:19;;;;;;;3.90;3.60;;;;;;;24.91;nan;99311.28;4998247;28;21003;-82
2023/08/05 10:13:08;;;;;;;3.87;3.10;;;;;;;25.12;nan;99307.69;5000376;28;20559;-82
2023/08/05 10:15:38;;;;;;;2.70;2.50;;;;;;;25.39;nan;99300.59;4997133;28;20966;-82
2023/08/05 10:18:16;;;;;;;3.90;3.60;;;;;;;25.66;nan;99306.06;4999394;28;20474;-82
2023/08/05 10:20:42;;;;;;;3.57;2.33;;;;;;;25.93;nan;99296.22;5000714;28;20534;-82
2023/08/05 10:23:09;;;;;;;2.67;2.47;;;;;;;26.13;nan;99291.69;4999496;28;20457;-82
2023/08/05 10:25:45;;;;;;;2.40;2.20;;;;;;;26.37;nan;99289.41;4980813;28;20297;-82
2023/08/05 10:28:33;;;;;;;5.37;2.77;;;;;;;26.48;nan;99292.28;4976390;28;20494;-82
2023/08/05 10:31:03;;;;;;;3.37;2.90;;;;;;;26.57;nan;99281.34;5002473;28;20449;-82
2023/08/05 10:33:29;;;;;;;2.70;2.23;;;;;;;26.57;nan;99278.63;5002054;28;20442;-82
2023/08/05 10:36:01;;;;;;;5.97;2.87;;;;;;;26.52;nan;99273.06;4999439;28;20475;-82
2023/08/05 10:38:27;;;;;;;4.00;3.60;;;;;;;26.40;nan;99268.28;4993252;28;20195;-80
2023/08/05 10:41:01;;;;;;;2.90;2.60;;;;;;;26.43;nan;99258.94;4994570;28;20527;-80
2023/08/05 10:43:30;;;;;;;3.50;2.10;;;;;;;26.40;nan;99256.69;4993678;28;20203;-80
2023/08/05 10:46:07;;;;;;;3.40;2.50;;;;;;;26.51;nan;99258.75;5001990;28;20470;-81
2023/08/05 10:48:44;;;;;;;2.87;2.67;;;;;;;26.57;nan;99247.16;4996300;28;20489;-80
2023/08/05 10:51:19;;;;;;;4.00;3.07;;;;;;;26.63;nan;99250.88;4993265;28;20468;-80
2023/08/05 10:53:51;;;;;;;2.20;2.07;;;;;;;26.72;nan;99243.41;4994976;28;20893;-80
2023/08/05 10:56:16;;;;;;;2.50;2.30;;;;;;;26.70;nan;99249.81;4993882;28;20474;-80
2023/08/05 10:58:49;;;;;;;2.60;2.40;;;;;;;26.75;nan;99251.06;4994008;28;20553;-80
2023/08/05 11:01:15;;;;;;;3.60;2.30;;;;;;;26.70;nan;99254.38;4991584;28;20261;-80
2023/08/05 11:03:52;;;;;;;2.67;2.47;;;;;;;26.49;nan;99252.72;4993049;28;20893;-81
2023/08/05 11:06:25;;;;;;;8.93;3.13;;;;;;;26.12;nan;99246.97;4992900;28;20524;-81
2023/08/05 11:08:51;;;;;;;14.03;4.00;;;;;;;26.10;nan;99249.03;4990880;28;21350;-79
2023/08/05 11:11:17;;;;;;;7.23;2.80;;;;;;;26.31;nan;99245.31;4995420;28;20449;-81
2023/08/05 11:13:46;;;;;;;7.90;3.23;;;;;;;26.57;nan;99233.69;4991270;28;20465;-80
2023/08/05 11:16:13;;;;;;;2.30;2.10;;;;;;;26.75;nan;99224.94;4993106;28;20470;-80
2023/08/05 11:18:54;;;;;;;2.77;2.57;;;;;;;26.70;nan;99222.88;4979688;28;20465;-81
2023/08/05 11:21:20;;;;;;;4.73;2.93;;;;;;;26.56;nan;99223.94;4990054;28;20465;-79
2023/08/05 11:23:46;;;;;;;2.80;2.40;;;;;;;26.55;nan;99216.91;4996952;28;20462;-80
2023/08/05 11:26:12;;;;;;;4.27;2.47;;;;;;;26.66;nan;99220.81;4996389;28;20478;-80
2023/08/05 11:28:46;;;;;;;3.90;2.40;;;;;;;26.57;nan;99212.16;4987054;28;20196;-80
2023/08/05 11:31:22;;;;;;;3.97;2.43;;;;;;;26.46;nan;99207.34;4987694;28;20546;-81
2023/08/05 11:33:48;;;;;;;2.60;2.40;;;;;;;26.39;nan;99204.69;4989652;28;21058;-80
2023/08/05 11:36:14;;;;;;;2.10;1.67;;;;;;;26.37;nan;99200.53;4988065;28;20545;-81
2023/08/05 11:38:39;;;;;;;2.80;2.23;;;;;;;26.36;nan;99212.38;4986394;28;20241;-81
2023/08/05 11:41:05;;;;;;;2.97;2.20;;;;;;;26.32;nan;99200.34;4984660;28;20180;-81
2023/08/05 11:43:31;;;;;;;2.60;2.13;;;;;;;26.40;nan;99197.44;4983902;28;20660;-81
2023/08/05 11:45:58;;;;;;;2.30;2.10;;;;;;;26.53;nan;99196.63;4993628;28;20249;-81
2023/08/05 11:48:27;;;;;;;2.60;2.40;;;;;;;26.36;nan;99188.13;4987915;28;21079;-81
2023/08/05 11:50:58;;;;;;;2.67;1.90;;;;;;;26.33;nan;99193.91;4986550;28;20452;-81
2023/08/05 11:53:27;;;;;;;2.23;2.03;;;;;;;26.45;nan;99184.16;4976937;28;21247;-81